createdAt,value
2019-01-23T00:00:55.858Z,18.80
2019-01-23T00:03:24.824Z,19.17
2019-01-23T00:05:53.748Z,18.50
2019-01-23T00:08:22.688Z,18.63
2019-01-23T00:10:51.686Z,19.30
2019-01-23T00:13:20.613Z,17.00
2019-01-23T00:15:49.589Z,18.40
2019-01-23T00:18:18.601Z,18.80
2019-01-23T00:20:47.636Z,17.13
2019-01-23T00:23:16.656Z,17.87
2019-01-23T00:25:45.582Z,17.30
2019-01-23T00:28:14.587Z,17.67
2019-01-23T00:30:43.644Z,17.67
2019-01-23T00:33:12.488Z,17.00
2019-01-23T00:35:41.493Z,17.60
2019-01-23T00:38:10.593Z,19.07
2019-01-23T00:40:39.541Z,17.10
2019-01-23T00:43:08.536Z,18.80
2019-01-23T00:45:37.616Z,17.70
2019-01-23T00:48:06.696Z,17.33
2019-01-23T00:50:35.617Z,19.73
2019-01-23T00:53:04.625Z,16.73
2019-01-23T00:55:33.661Z,17.17
2019-01-23T00:58:02.765Z,16.90
2019-01-23T01:00:31.784Z,18.23
2019-01-23T01:03:00.784Z,16.83
2019-01-23T01:05:29.780Z,16.60
2019-01-23T01:07:58.853Z,17.60
2019-01-23T01:10:27.933Z,17.97
2019-01-23T01:12:56.945Z,15.60
2019-01-23T01:15:25.961Z,17.50
2019-01-23T01:17:54.882Z,17.50
2019-01-23T01:20:26.225Z,15.93
2019-01-23T01:22:55.229Z,16.60
2019-01-23T01:25:24.245Z,15.43
2019-01-23T01:27:53.549Z,14.90
2019-01-23T01:30:23.454Z,14.77
2019-01-23T01:32:52.456Z,15.70
2019-01-23T01:35:21.457Z,17.23
2019-01-23T01:37:50.491Z,16.70
2019-01-23T01:40:19.700Z,16.53
2019-01-23T01:42:48.624Z,16.57
2019-01-23T01:45:17.938Z,16.67
2019-01-23T01:47:46.909Z,14.80
2019-01-23T01:50:20.573Z,15.67
2019-01-23T01:52:49.928Z,15.83
2019-01-23T01:55:18.930Z,15.47
2019-01-23T01:57:48.009Z,14.43
2019-01-23T02:00:19.412Z,15.37
2019-01-23T02:02:48.408Z,15.13
2019-01-23T02:05:17.630Z,15.00
2019-01-23T02:07:46.733Z,13.90
2019-01-23T02:10:17.625Z,16.20
2019-01-23T02:12:46.829Z,15.00
2019-01-23T02:15:16.437Z,16.27
2019-01-23T02:17:45.568Z,17.03
2019-01-23T02:20:19.729Z,15.20
2019-01-23T02:22:48.735Z,18.17
2019-01-23T02:25:18.196Z,15.27
2019-01-23T02:27:47.806Z,14.70
2019-01-23T02:30:18.777Z,15.33
2019-01-23T02:32:47.778Z,15.97
2019-01-23T02:35:16.918Z,16.03
2019-01-23T02:37:45.913Z,17.07
2019-01-23T02:40:17.304Z,15.37
2019-01-23T02:42:46.346Z,16.30
2019-01-23T02:45:15.835Z,15.27
2019-01-23T02:47:45.124Z,16.27
2019-01-23T02:50:14.736Z,16.17
2019-01-23T02:52:43.816Z,15.30
2019-01-23T02:55:12.926Z,15.63
2019-01-23T02:57:41.997Z,15.70
2019-01-23T03:00:13.794Z,16.77
2019-01-23T03:02:42.820Z,16.93
2019-01-23T03:05:14.385Z,16.67
2019-01-23T03:07:43.390Z,15.03
2019-01-23T03:10:13.729Z,15.30
2019-01-23T03:12:42.740Z,14.93
2019-01-23T03:15:12.329Z,15.97
2019-01-23T03:17:41.368Z,14.90
2019-01-23T03:20:12.292Z,15.47
2019-01-23T03:22:41.234Z,15.43
2019-01-23T03:25:11.479Z,15.30
2019-01-23T03:27:40.481Z,16.07
2019-01-23T03:30:12.330Z,15.30
2019-01-23T03:32:41.330Z,18.90
2019-01-23T03:35:10.575Z,15.20
2019-01-23T03:37:39.572Z,17.47
2019-01-23T03:40:11.885Z,16.53
2019-01-23T03:42:40.823Z,15.83
2019-01-23T03:45:11.314Z,18.60
2019-01-23T03:47:40.305Z,17.10
2019-01-23T03:50:11.129Z,15.73
2019-01-23T03:52:40.131Z,15.67
2019-01-23T03:55:09.943Z,16.57
2019-01-23T03:57:39.029Z,14.97
2019-01-23T04:00:11.216Z,15.27
2019-01-23T04:02:40.363Z,16.60
2019-01-23T04:05:10.089Z,16.47
2019-01-23T04:07:39.082Z,14.73
2019-01-23T04:10:10.433Z,15.77
2019-01-23T04:12:39.450Z,16.50
2019-01-23T04:15:09.440Z,15.90
2019-01-23T04:17:38.433Z,16.90
2019-01-23T04:20:16.043Z,15.93
2019-01-23T04:22:45.147Z,15.03
2019-01-23T04:25:14.509Z,15.17
2019-01-23T04:27:43.950Z,15.77
2019-01-23T04:30:15.782Z,16.10
2019-01-23T04:32:44.721Z,17.33
2019-01-23T04:35:13.732Z,16.00
2019-01-23T04:37:42.841Z,17.00
2019-01-23T04:40:12.172Z,17.97
2019-01-23T04:42:41.193Z,19.10
2019-01-23T04:45:11.277Z,17.60
2019-01-23T04:47:40.273Z,15.07
2019-01-23T04:50:10.978Z,14.20
2019-01-23T04:52:58.215Z,17.27
2019-01-23T04:55:27.226Z,15.40
2019-01-23T04:57:56.081Z,15.10
2019-01-23T05:00:26.427Z,16.87
2019-01-23T05:02:55.504Z,19.90
2019-01-23T05:05:24.507Z,19.30
2019-01-23T05:07:53.422Z,17.10
2019-01-23T05:10:22.422Z,16.10
2019-01-23T05:12:51.446Z,17.67
2019-01-23T05:15:20.439Z,18.03
2019-01-23T05:17:49.498Z,23.37
2019-01-23T05:20:18.430Z,20.80
2019-01-23T05:22:47.346Z,18.20
2019-01-23T05:25:17.046Z,17.33
2019-01-23T05:27:45.963Z,19.07
2019-01-23T05:30:24.620Z,17.60
2019-01-23T05:32:53.554Z,16.93
2019-01-23T05:35:22.544Z,21.17
2019-01-23T05:37:51.745Z,21.87
2019-01-23T05:40:20.825Z,16.47
2019-01-23T05:42:49.818Z,17.70
2019-01-23T05:45:18.804Z,35.13
2019-01-23T05:47:47.794Z,17.03
2019-01-23T05:50:17.464Z,15.20
2019-01-23T05:52:48.102Z,19.77
2019-01-23T05:55:17.410Z,17.00
2019-01-23T05:57:46.426Z,17.40
2019-01-23T06:00:18.008Z,18.67
2019-01-23T06:02:47.048Z,18.23
2019-01-23T06:05:16.850Z,17.27
2019-01-23T06:07:45.821Z,19.13
2019-01-23T06:10:15.008Z,21.97
2019-01-23T06:12:44.004Z,21.73
2019-01-23T06:15:13.032Z,23.10
2019-01-23T06:17:42.033Z,23.97
2019-01-23T06:20:13.521Z,25.00
2019-01-23T06:22:42.613Z,24.90
2019-01-23T06:25:11.721Z,24.40
2019-01-23T06:27:40.730Z,24.50
2019-01-23T06:30:13.042Z,24.30
2019-01-23T06:32:42.106Z,23.10
2019-01-23T06:35:11.805Z,25.67
2019-01-23T06:37:40.802Z,24.17
2019-01-23T06:40:11.526Z,22.63
2019-01-23T06:42:40.534Z,23.23
2019-01-23T06:45:11.592Z,22.07
2019-01-23T06:47:40.584Z,22.87
2019-01-23T06:50:21.031Z,21.23
2019-01-23T06:52:50.030Z,21.90
2019-01-23T06:55:19.030Z,22.07
2019-01-23T06:57:47.984Z,21.63
2019-01-23T07:00:24.768Z,22.30
2019-01-23T07:02:53.815Z,22.07
2019-01-23T07:05:23.177Z,23.70
2019-01-23T07:07:52.270Z,24.10
2019-01-23T07:10:23.311Z,24.07
2019-01-23T07:12:52.352Z,22.90
2019-01-23T07:15:21.392Z,23.23
2019-01-23T07:17:50.395Z,24.93
2019-01-23T07:20:21.509Z,22.93
2019-01-23T07:22:50.507Z,23.93
2019-01-23T07:25:19.766Z,24.00
2019-01-23T07:27:48.777Z,24.57
2019-01-23T07:30:24.288Z,26.33
2019-01-23T07:32:51.382Z,25.33
2019-01-23T07:35:20.377Z,26.47
2019-01-23T07:37:49.385Z,24.83
2019-01-23T07:40:18.405Z,25.93
2019-01-23T07:42:47.403Z,28.13
2019-01-23T07:45:17.269Z,25.87
2019-01-23T07:47:46.273Z,25.50
2019-01-23T07:50:15.714Z,28.00
2019-01-23T07:52:44.748Z,25.80
2019-01-23T07:55:15.412Z,24.40
2019-01-23T07:57:44.480Z,29.10
2019-01-23T08:00:15.850Z,25.73
2019-01-23T08:02:44.969Z,28.07
2019-01-23T08:05:19.402Z,26.63
2019-01-23T08:07:45.586Z,29.47
2019-01-23T08:10:16.862Z,26.87
2019-01-23T08:12:45.870Z,22.07
2019-01-23T08:15:20.386Z,22.43
2019-01-23T08:17:49.396Z,21.20
2019-01-23T08:20:19.248Z,24.37
2019-01-23T08:22:48.236Z,23.50
2019-01-23T08:25:17.658Z,23.60
2019-01-23T08:27:46.643Z,23.07
2019-01-23T08:30:17.248Z,21.80
2019-01-23T08:32:46.253Z,22.63
2019-01-23T08:35:15.737Z,20.17
2019-01-23T08:37:44.761Z,19.03
2019-01-23T08:40:14.785Z,21.10
2019-01-23T08:42:44.080Z,23.33
2019-01-23T08:45:13.185Z,23.07
2019-01-23T08:47:42.213Z,20.87
2019-01-23T08:50:42.889Z,21.13
2019-01-23T08:53:11.897Z,20.40
2019-01-23T08:55:40.901Z,22.20
2019-01-23T08:58:09.893Z,20.67
2019-01-23T09:00:45.598Z,20.50
2019-01-23T09:03:09.637Z,20.70
2019-01-23T09:05:38.561Z,19.90
2019-01-23T09:08:07.876Z,21.00
2019-01-23T09:10:36.865Z,18.73
2019-01-23T09:13:05.888Z,19.70
2019-01-23T09:15:34.916Z,20.50
2019-01-23T09:18:04.560Z,20.07
2019-01-23T09:20:33.557Z,19.20
2019-01-23T09:23:02.488Z,19.03
2019-01-23T09:25:31.489Z,18.13
2019-01-23T09:28:00.485Z,20.13
2019-01-23T09:30:38.477Z,19.73
2019-01-23T09:33:36.111Z,18.70
2019-01-23T09:36:58.394Z,19.20
2019-01-23T09:39:58.816Z,17.47
2019-01-23T09:42:47.257Z,17.57
2019-01-23T09:46:08.752Z,19.43
2019-01-23T09:49:21.926Z,21.67
2019-01-23T09:52:25.182Z,19.90
2019-01-23T09:54:54.190Z,19.37
2019-01-23T09:57:23.188Z,20.10
2019-01-23T09:59:52.185Z,20.20
2019-01-23T10:02:21.129Z,20.70
2019-01-23T10:04:49.980Z,21.17
2019-01-23T10:07:18.981Z,20.27
2019-01-23T10:09:47.941Z,20.37
2019-01-23T10:12:16.785Z,20.53
2019-01-23T10:14:45.697Z,19.93
2019-01-23T10:17:15.589Z,20.90
2019-01-23T10:19:44.618Z,20.33
2019-01-23T10:22:13.612Z,20.63
2019-01-23T10:24:42.628Z,20.07
2019-01-23T10:27:11.734Z,22.23
2019-01-23T10:29:40.749Z,22.17
2019-01-23T10:32:09.836Z,23.70
2019-01-23T10:34:38.861Z,24.47
2019-01-23T10:37:07.888Z,31.67
2019-01-23T10:39:36.953Z,25.57
2019-01-23T10:42:06.264Z,26.00
2019-01-23T10:44:35.267Z,23.80
2019-01-23T10:47:04.278Z,26.90
2019-01-23T10:49:33.577Z,26.17
2019-01-23T10:52:02.492Z,27.10
2019-01-23T10:54:31.358Z,29.10
2019-01-23T10:57:00.277Z,26.07
2019-01-23T10:59:29.268Z,29.63
2019-01-23T11:01:58.273Z,24.73
2019-01-23T11:04:27.272Z,25.80
2019-01-23T11:06:56.293Z,24.83
2019-01-23T11:09:25.413Z,24.23
2019-01-23T11:11:54.419Z,26.63
2019-01-23T11:14:23.404Z,24.13
2019-01-23T11:16:52.431Z,25.37
2019-01-23T11:19:21.765Z,24.87
2019-01-23T11:21:50.757Z,25.50
2019-01-23T11:24:19.688Z,25.40
2019-01-23T11:26:48.761Z,24.40
2019-01-23T11:29:17.681Z,25.93
2019-01-23T11:31:46.609Z,26.30
2019-01-23T11:34:15.605Z,27.47
2019-01-23T11:36:44.972Z,29.43
2019-01-23T11:39:13.985Z,26.70
2019-01-23T11:41:42.982Z,27.97
2019-01-23T11:44:11.984Z,25.43
2019-01-23T11:46:41.093Z,27.77
2019-01-23T11:49:10.389Z,27.57
2019-01-23T11:51:39.321Z,29.70
2019-01-23T11:54:08.273Z,25.37
2019-01-23T11:56:37.246Z,27.27
2019-01-23T11:59:06.290Z,30.53
2019-01-23T12:01:35.381Z,28.47
2019-01-23T12:04:04.673Z,27.37
2019-01-23T12:06:33.664Z,26.87
2019-01-23T12:09:02.762Z,26.10
2019-01-23T12:11:31.682Z,28.50
2019-01-23T12:14:00.678Z,27.77
2019-01-23T12:16:29.622Z,28.23
2019-01-23T12:18:58.694Z,31.33
2019-01-23T12:21:27.710Z,28.57
2019-01-23T12:23:58.410Z,27.53
2019-01-23T12:26:27.492Z,27.60
2019-01-23T12:28:56.485Z,29.10
2019-01-23T12:31:25.454Z,26.63
2019-01-23T12:33:54.297Z,29.70
2019-01-23T12:36:23.288Z,26.07
2019-01-23T12:38:52.305Z,30.00
2019-01-23T12:41:21.297Z,31.17
2019-01-23T12:43:50.305Z,33.97
2019-01-23T12:46:19.395Z,34.33
2019-01-23T12:48:48.316Z,27.30
2019-01-23T12:51:17.353Z,27.10
2019-01-23T12:53:46.420Z,24.00
2019-01-23T12:56:15.525Z,22.40
2019-01-23T12:58:44.572Z,23.50
2019-01-23T13:01:13.585Z,22.87
2019-01-23T13:03:42.570Z,22.90
2019-01-23T13:06:11.569Z,24.40
2019-01-23T13:08:40.582Z,23.70
2019-01-23T13:11:09.565Z,22.23
2019-01-23T13:13:38.553Z,22.97
2019-01-23T13:16:07.569Z,23.83
2019-01-23T13:18:36.566Z,24.53
2019-01-23T13:21:05.558Z,23.43
2019-01-23T13:23:34.584Z,24.57
2019-01-23T13:26:03.589Z,26.80
2019-01-23T13:28:32.585Z,25.97
2019-01-23T13:31:01.689Z,25.30
2019-01-23T13:33:30.691Z,23.83
2019-01-23T13:36:00.064Z,25.33
2019-01-23T13:38:29.085Z,26.93
2019-01-23T13:40:58.005Z,26.47
2019-01-23T13:43:26.992Z,25.97
2019-01-23T13:45:56.015Z,28.10
2019-01-23T13:48:25.033Z,25.90
2019-01-23T13:50:54.030Z,26.33
2019-01-23T13:53:23.035Z,27.13
2019-01-23T13:55:51.954Z,24.80
2019-01-23T13:58:20.972Z,24.13
2019-01-23T14:00:49.980Z,24.40
2019-01-23T14:03:19.506Z,25.87
2019-01-23T14:05:48.813Z,25.43
2019-01-23T14:08:17.986Z,25.40
2019-01-23T14:10:47.030Z,27.00
2019-01-23T14:13:16.156Z,26.47
2019-01-23T14:15:45.190Z,26.07
2019-01-23T14:18:14.257Z,26.13
2019-01-23T14:20:43.444Z,27.10
2019-01-23T14:23:12.490Z,28.07
2019-01-23T14:25:41.822Z,27.40
2019-01-23T14:28:10.965Z,29.50
2019-01-23T14:30:42.276Z,26.83
2019-01-23T14:33:11.261Z,28.00
2019-01-23T14:35:42.633Z,27.90
2019-01-23T14:38:12.209Z,28.67
2019-01-23T14:40:41.473Z,30.40
2019-01-23T14:43:10.976Z,28.87
2019-01-23T14:45:40.329Z,30.90
2019-01-23T14:48:09.317Z,30.27
2019-01-23T14:50:38.679Z,30.63
2019-01-23T14:53:07.719Z,31.30
2019-01-23T14:55:36.819Z,32.27
2019-01-23T14:58:05.964Z,32.80
2019-01-23T15:00:34.976Z,30.80
2019-01-23T15:03:04.194Z,33.50
2019-01-23T15:05:33.361Z,33.87
2019-01-23T15:08:02.647Z,33.83
2019-01-23T15:10:32.065Z,32.83
2019-01-23T15:13:01.340Z,36.60
2019-01-23T15:15:31.359Z,36.70
2019-01-23T15:18:00.783Z,42.20
2019-01-23T15:20:32.781Z,41.27
2019-01-23T15:23:03.252Z,37.70
2019-01-23T15:25:32.261Z,89.00
2019-01-23T15:28:01.857Z,178.27
2019-01-23T15:30:31.196Z,90.00
2019-01-23T15:33:00.499Z,36.53
2019-01-23T15:35:29.782Z,50.03
2019-01-23T15:37:59.077Z,72.10
2019-01-23T15:40:30.233Z,47.13
2019-01-23T15:42:59.224Z,33.37
2019-01-23T15:45:28.272Z,34.93
2019-01-23T15:47:57.743Z,33.37
2019-01-23T15:50:27.022Z,33.90
2019-01-23T15:52:56.621Z,34.30
2019-01-23T15:55:26.032Z,36.27
2019-01-23T15:57:55.111Z,35.70
2019-01-23T16:00:26.741Z,34.40
2019-01-23T16:02:56.481Z,32.63
2019-01-23T16:05:25.864Z,33.40
2019-01-23T16:07:55.894Z,32.00
2019-01-23T16:10:27.162Z,33.00
2019-01-23T16:12:56.285Z,32.27
2019-01-23T16:15:27.130Z,34.10
2019-01-23T16:17:57.595Z,31.73
2019-01-23T16:20:30.363Z,35.30
2019-01-23T16:23:17.846Z,35.20
2019-01-23T16:25:46.722Z,29.43
2019-01-23T16:28:16.824Z,31.60
2019-01-23T16:30:49.712Z,31.67
2019-01-23T16:33:19.554Z,32.63
2019-01-23T16:35:48.612Z,33.47
2019-01-23T16:38:19.298Z,34.70
2019-01-23T16:40:57.705Z,36.90
2019-01-23T16:43:27.002Z,35.90
2019-01-23T16:45:56.112Z,32.57
2019-01-23T16:48:25.225Z,35.47
2019-01-23T16:50:54.300Z,31.50
2019-01-23T16:53:24.114Z,33.93
2019-01-23T16:55:53.809Z,32.67
2019-01-23T16:58:23.013Z,31.33
2019-01-23T17:00:52.413Z,33.00
2019-01-23T17:03:22.347Z,33.53
2019-01-23T17:05:51.622Z,31.10
2019-01-23T17:08:20.625Z,31.33
2019-01-23T17:10:49.618Z,30.87
2019-01-23T17:13:18.909Z,28.17
2019-01-23T17:15:47.821Z,31.33
2019-01-23T17:18:16.820Z,40.00
2019-01-23T17:20:48.290Z,36.60
2019-01-23T17:23:17.276Z,33.20
2019-01-23T17:25:46.268Z,32.80
2019-01-23T17:28:16.125Z,33.40
2019-01-23T17:30:45.053Z,32.93
2019-01-23T17:33:14.076Z,32.80
2019-01-23T17:35:43.095Z,34.77
2019-01-23T17:38:12.016Z,34.47
2019-01-23T17:40:41.309Z,35.87
2019-01-23T17:43:11.280Z,35.17
2019-01-23T17:45:40.553Z,34.07
2019-01-23T17:48:13.088Z,32.30
2019-01-23T17:50:42.327Z,35.13
2019-01-23T17:53:11.385Z,34.93
2019-01-23T17:55:41.169Z,35.20
2019-01-23T17:58:12.316Z,35.10
2019-01-23T18:00:47.297Z,40.13
2019-01-23T18:03:16.404Z,32.70
2019-01-23T18:05:51.124Z,35.47
2019-01-23T18:08:15.945Z,34.80
2019-01-23T18:10:44.984Z,33.37
2019-01-23T18:13:13.976Z,38.77
2019-01-23T18:15:42.937Z,36.97
2019-01-23T18:18:12.051Z,36.13
2019-01-23T18:20:41.044Z,35.37
2019-01-23T18:23:09.949Z,34.77
2019-01-23T18:25:38.961Z,33.13
2019-01-23T18:28:08.125Z,41.10
2019-01-23T18:30:45.915Z,35.77
2019-01-23T18:33:16.726Z,39.97
2019-01-23T18:36:12.956Z,36.40
2019-01-23T18:39:04.720Z,36.97
2019-01-23T18:42:05.161Z,33.90
2019-01-23T18:45:14.430Z,38.33
2019-01-23T18:48:26.538Z,32.67
2019-01-23T18:51:08.146Z,33.67
2019-01-23T18:53:37.150Z,35.53
2019-01-23T18:56:06.452Z,37.50
2019-01-23T18:58:35.423Z,35.57
2019-01-23T19:01:04.725Z,39.00
2019-01-23T19:03:33.713Z,35.00
2019-01-23T19:06:02.965Z,37.43
2019-01-23T19:08:31.971Z,36.63
2019-01-23T19:11:00.929Z,37.17
2019-01-23T19:13:29.849Z,37.97
2019-01-23T19:15:59.247Z,38.17
2019-01-23T19:18:28.161Z,38.30
2019-01-23T19:20:57.222Z,37.17
2019-01-23T19:23:26.530Z,37.70
2019-01-23T19:25:55.550Z,36.70
2019-01-23T19:28:24.990Z,39.70
2019-01-23T19:30:54.092Z,37.80
2019-01-23T19:33:23.407Z,36.10
2019-01-23T19:35:52.415Z,38.20
2019-01-23T19:38:21.425Z,36.10
2019-01-23T19:40:51.893Z,34.77
2019-01-23T19:43:21.206Z,36.10
2019-01-23T19:45:50.228Z,38.60
2019-01-23T19:48:20.597Z,36.97
2019-01-23T19:50:49.706Z,37.37
2019-01-23T19:53:18.692Z,37.00
2019-01-23T19:55:47.680Z,37.63
2019-01-23T19:58:16.669Z,35.03
2019-01-23T20:00:45.753Z,31.63
2019-01-23T20:03:20.335Z,34.80
2019-01-23T20:05:45.769Z,35.20
2019-01-23T20:08:19.438Z,35.13
2019-01-23T20:10:48.430Z,32.87
2019-01-23T20:13:17.429Z,32.37
2019-01-23T20:15:46.622Z,30.27
2019-01-23T20:18:15.618Z,33.40
2019-01-23T20:20:44.628Z,34.77
2019-01-23T20:23:13.642Z,35.10
2019-01-23T20:25:42.562Z,34.27
2019-01-23T20:28:12.977Z,36.93
2019-01-23T20:30:43.738Z,38.10
2019-01-23T20:33:12.737Z,35.07
2019-01-23T20:35:41.778Z,31.87
2019-01-23T20:38:10.787Z,34.73
2019-01-23T20:40:40.150Z,34.23
2019-01-23T20:43:09.295Z,35.47
2019-01-23T20:45:38.349Z,33.20
2019-01-23T20:48:09.213Z,35.20
2019-01-23T20:50:43.529Z,34.47
2019-01-23T20:53:12.480Z,35.40
2019-01-23T20:55:42.275Z,30.30
2019-01-23T20:58:11.794Z,29.93
2019-01-23T21:00:40.920Z,30.47
2019-01-23T21:03:10.190Z,27.03
2019-01-23T21:05:39.529Z,30.37
2019-01-23T21:08:08.914Z,30.70
2019-01-23T21:10:37.977Z,29.10
2019-01-23T21:13:07.285Z,29.73
2019-01-23T21:15:36.287Z,27.63
2019-01-23T21:18:06.505Z,27.30
2019-01-23T21:20:38.046Z,31.47
2019-01-23T21:23:08.266Z,32.77
2019-01-23T21:25:37.277Z,31.33
2019-01-23T21:28:06.264Z,31.27
2019-01-23T21:30:35.188Z,28.10
2019-01-23T21:33:04.751Z,27.27
2019-01-23T21:35:33.750Z,26.23
2019-01-23T21:38:02.850Z,27.57
2019-01-23T21:40:33.404Z,26.77
2019-01-23T21:43:02.898Z,28.17
2019-01-23T21:45:35.170Z,29.00
2019-01-23T21:48:04.389Z,26.17
2019-01-23T21:50:33.373Z,30.20
2019-01-23T21:53:02.377Z,27.67
2019-01-23T21:55:31.367Z,30.57
2019-01-23T21:58:00.386Z,29.20
2019-01-23T22:00:32.542Z,28.23
2019-01-23T22:03:01.646Z,31.30
2019-01-23T22:05:30.682Z,27.67
2019-01-23T22:07:59.683Z,29.17
2019-01-23T22:10:28.594Z,30.90
2019-01-23T22:12:57.576Z,30.77
2019-01-23T22:15:27.224Z,32.27
2019-01-23T22:17:56.130Z,29.90
2019-01-23T22:20:25.161Z,27.00
2019-01-23T22:22:54.507Z,29.30
2019-01-23T22:25:24.392Z,30.30
2019-01-23T22:27:53.372Z,34.83
2019-01-23T22:30:24.629Z,33.77
2019-01-23T22:32:53.882Z,32.70
2019-01-23T22:35:22.866Z,31.57
2019-01-23T22:37:52.203Z,33.03
2019-01-23T22:40:21.477Z,30.67
2019-01-23T22:42:50.419Z,31.80
2019-01-23T22:45:20.305Z,32.27
2019-01-23T22:47:49.406Z,29.80
2019-01-23T22:50:23.127Z,30.97
2019-01-23T22:52:52.746Z,31.73
2019-01-23T22:55:21.928Z,31.90
2019-01-23T22:57:50.904Z,31.37
2019-01-23T23:00:44.631Z,32.60
2019-01-23T23:03:16.254Z,32.80
2019-01-23T23:05:45.328Z,33.50
2019-01-23T23:08:14.320Z,32.03
2019-01-23T23:10:43.312Z,30.67
2019-01-23T23:13:12.297Z,32.83
2019-01-23T23:15:41.300Z,33.50
2019-01-23T23:18:10.209Z,34.00
2019-01-23T23:20:39.193Z,32.70
2019-01-23T23:23:08.193Z,31.77
2019-01-23T23:25:37.185Z,34.57
2019-01-23T23:28:06.381Z,35.27
2019-01-23T23:30:35.409Z,32.60
2019-01-23T23:33:04.490Z,33.03
2019-01-23T23:35:33.469Z,35.17
2019-01-23T23:38:02.485Z,35.20
2019-01-23T23:40:31.392Z,33.97
2019-01-23T23:43:00.392Z,36.67
2019-01-23T23:45:29.613Z,33.70
2019-01-23T23:47:58.516Z,30.63
2019-01-23T23:50:27.509Z,32.80
2019-01-23T23:52:56.600Z,34.10
2019-01-23T23:55:25.564Z,31.63
2019-01-23T23:57:54.556Z,35.30
